sensor_id;sensor_type;location;lat;lon;timestamp;P1;durP1;ratioP1;P2;durP2;ratioP2
2748;SDS011;1382;52.142;11.618;2023-11-21T00:01:09;12.93;;;4.97;;
2748;SDS011;1382;52.142;11.618;2023-11-21T00:03:36;11.23;;;5.43;;
2748;SDS011;1382;52.142;11.618;2023-11-21T00:06:05;11.47;;;5.13;;
2748;SDS011;1382;52.142;11.618;2023-11-21T00:08:32;11.53;;;5.23;;
2748;SDS011;1382;52.142;11.618;2023-11-21T00:10:59;11.93;;;5.27;;
2748;SDS011;1382;52.142;11.618;2023-11-21T00:13:26;20.67;;;6.10;;
2748;SDS011;1382;52.142;11.618;2023-11-21T00:15:52;7.70;;;5.00;;
2748;SDS011;1382;52.142;11.618;2023-11-21T00:18:19;8.93;;;4.47;;
2748;SDS011;1382;52.142;11.618;2023-11-21T00:20:47;9.70;;;4.60;;
2748;SDS011;1382;52.142;11.618;2023-11-21T00:23:15;13.77;;;4.93;;
2748;SDS011;1382;52.142;11.618;2023-11-21T00:25:42;7.00;;;4.93;;
2748;SDS011;1382;52.142;11.618;2023-11-21T00:28:09;10.80;;;4.97;;
2748;SDS011;1382;52.142;11.618;2023-11-21T00:30:36;13.63;;;5.80;;
2748;SDS011;1382;52.142;11.618;2023-11-21T00:33:03;7.70;;;5.00;;
2748;SDS011;1382;52.142;11.618;2023-11-21T00:35:30;13.93;;;4.97;;
2748;SDS011;1382;52.142;11.618;2023-11-21T00:37:56;13.03;;;4.23;;
2748;SDS011;1382;52.142;11.618;2023-11-21T00:40:25;9.20;;;4.60;;
2748;SDS011;1382;52.142;11.618;2023-11-21T00:42:51;13.67;;;5.33;;
2748;SDS011;1382;52.142;11.618;2023-11-21T00:45:18;11.87;;;5.63;;
2748;SDS011;1382;52.142;11.618;2023-11-21T00:47:45;9.47;;;5.13;;
2748;SDS011;1382;52.142;11.618;2023-11-21T00:50:12;14.40;;;6.00;;
2748;SDS011;1382;52.142;11.618;2023-11-21T00:52:39;11.73;;;4.90;;
2748;SDS011;1382;52.142;11.618;2023-11-21T00:55:06;14.47;;;5.20;;
2748;SDS011;1382;52.142;11.618;2023-11-21T00:57:35;6.50;;;4.53;;
2748;SDS011;1382;52.142;11.618;2023-11-21T01:00:02;8.93;;;5.50;;
2748;SDS011;1382;52.142;11.618;2023-11-21T01:02:30;10.03;;;5.43;;
2748;SDS011;1382;52.142;11.618;2023-11-21T01:04:57;8.43;;;4.50;;
2748;SDS011;1382;52.142;11.618;2023-11-21T01:07:24;13.13;;;5.00;;
2748;SDS011;1382;52.142;11.618;2023-11-21T01:09:53;12.07;;;5.70;;
2748;SDS011;1382;52.142;11.618;2023-11-21T01:12:20;10.27;;;5.70;;
2748;SDS011;1382;52.142;11.618;2023-11-21T01:14:48;12.80;;;5.80;;
2748;SDS011;1382;52.142;11.618;2023-11-21T01:17:15;13.90;;;5.70;;
2748;SDS011;1382;52.142;11.618;2023-11-21T01:19:42;11.67;;;5.40;;
2748;SDS011;1382;52.142;11.618;2023-11-21T01:22:09;14.47;;;6.13;;
2748;SDS011;1382;52.142;11.618;2023-11-21T01:24:36;16.83;;;6.03;;
2748;SDS011;1382;52.142;11.618;2023-11-21T01:27:03;17.03;;;6.27;;
2748;SDS011;1382;52.142;11.618;2023-11-21T01:29:30;12.17;;;5.20;;
2748;SDS011;1382;52.142;11.618;2023-11-21T01:31:58;15.33;;;5.97;;
2748;SDS011;1382;52.142;11.618;2023-11-21T01:34:25;13.00;;;6.43;;
2748;SDS011;1382;52.142;11.618;2023-11-21T01:36:52;13.63;;;6.17;;
2748;SDS011;1382;52.142;11.618;2023-11-21T01:39:19;15.10;;;6.87;;
2748;SDS011;1382;52.142;11.618;2023-11-21T01:41:46;17.13;;;6.30;;
2748;SDS011;1382;52.142;11.618;2023-11-21T01:44:12;15.00;;;5.10;;
2748;SDS011;1382;52.142;11.618;2023-11-21T01:46:39;17.37;;;6.60;;
2748;SDS011;1382;52.142;11.618;2023-11-21T01:49:08;15.00;;;6.73;;
2748;SDS011;1382;52.142;11.618;2023-11-21T01:51:36;22.33;;;6.50;;
2748;SDS011;1382;52.142;11.618;2023-11-21T01:54:03;14.17;;;7.13;;
2748;SDS011;1382;52.142;11.618;2023-11-21T01:56:31;11.83;;;5.20;;
2748;SDS011;1382;52.142;11.618;2023-11-21T01:58:58;13.00;;;6.60;;
2748;SDS011;1382;52.142;11.618;2023-11-21T02:01:25;20.60;;;7.20;;
2748;SDS011;1382;52.142;11.618;2023-11-21T02:03:52;13.63;;;6.97;;
2748;SDS011;1382;52.142;11.618;2023-11-21T02:06:20;11.70;;;6.50;;
2748;SDS011;1382;52.142;11.618;2023-11-21T02:08:47;11.90;;;6.13;;
2748;SDS011;1382;52.142;11.618;2023-11-21T02:11:16;13.80;;;5.93;;
2748;SDS011;1382;52.142;11.618;2023-11-21T02:13:43;13.97;;;7.17;;
2748;SDS011;1382;52.142;11.618;2023-11-21T02:16:10;12.30;;;6.07;;
2748;SDS011;1382;52.142;11.618;2023-11-21T02:18:37;13.80;;;6.13;;
2748;SDS011;1382;52.142;11.618;2023-11-21T02:21:04;14.77;;;6.07;;
2748;SDS011;1382;52.142;11.618;2023-11-21T02:23:33;13.60;;;6.40;;
2748;SDS011;1382;52.142;11.618;2023-11-21T02:26:00;11.83;;;6.90;;
2748;SDS011;1382;52.142;11.618;2023-11-21T02:28:26;12.33;;;7.33;;
2748;SDS011;1382;52.142;11.618;2023-11-21T02:30:53;23.93;;;7.20;;
2748;SDS011;1382;52.142;11.618;2023-11-21T02:33:20;16.03;;;7.80;;
2748;SDS011;1382;52.142;11.618;2023-11-21T02:35:47;13.67;;;7.23;;
2748;SDS011;1382;52.142;11.618;2023-11-21T02:38:14;13.30;;;5.70;;
2748;SDS011;1382;52.142;11.618;2023-11-21T02:40:43;16.47;;;6.90;;
2748;SDS011;1382;52.142;11.618;2023-11-21T02:43:10;16.90;;;7.27;;
2748;SDS011;1382;52.142;11.618;2023-11-21T02:45:36;14.10;;;6.70;;
2748;SDS011;1382;52.142;11.618;2023-11-21T02:48:03;22.93;;;8.27;;
2748;SDS011;1382;52.142;11.618;2023-11-21T02:50:30;15.43;;;6.50;;
2748;SDS011;1382;52.142;11.618;2023-11-21T02:52:57;19.83;;;7.57;;
2748;SDS011;1382;52.142;11.618;2023-11-21T02:55:25;15.93;;;7.13;;
2748;SDS011;1382;52.142;11.618;2023-11-21T02:57:53;19.60;;;7.63;;
2748;SDS011;1382;52.142;11.618;2023-11-21T03:00:20;18.40;;;7.70;;
2748;SDS011;1382;52.142;11.618;2023-11-21T03:02:47;14.43;;;7.60;;
2748;SDS011;1382;52.142;11.618;2023-11-21T03:05:14;10.20;;;6.40;;
2748;SDS011;1382;52.142;11.618;2023-11-21T03:07:41;16.97;;;7.80;;
2748;SDS011;1382;52.142;11.618;2023-11-21T03:10:08;18.07;;;8.10;;
2748;SDS011;1382;52.142;11.618;2023-11-21T03:12:36;20.77;;;8.57;;
2748;SDS011;1382;52.142;11.618;2023-11-21T03:15:05;22.60;;;9.30;;
2748;SDS011;1382;52.142;11.618;2023-11-21T03:17:32;21.07;;;9.47;;
2748;SDS011;1382;52.142;11.618;2023-11-21T03:19:59;18.97;;;9.03;;
2748;SDS011;1382;52.142;11.618;2023-11-21T03:22:26;17.97;;;9.37;;
2748;SDS011;1382;52.142;11.618;2023-11-21T03:24:53;16.40;;;8.80;;
2748;SDS011;1382;52.142;11.618;2023-11-21T03:27:20;22.83;;;10.80;;
2748;SDS011;1382;52.142;11.618;2023-11-21T03:29:47;19.07;;;10.00;;
2748;SDS011;1382;52.142;11.618;2023-11-21T03:32:15;20.17;;;9.50;;
2748;SDS011;1382;52.142;11.618;2023-11-21T03:34:53;18.50;;;9.80;;
2748;SDS011;1382;52.142;11.618;2023-11-21T03:37:21;20.70;;;8.47;;
2748;SDS011;1382;52.142;11.618;2023-11-21T03:39:48;16.53;;;7.50;;
2748;SDS011;1382;52.142;11.618;2023-11-21T03:42:15;16.37;;;7.70;;
2748;SDS011;1382;52.142;11.618;2023-11-21T03:44:42;15.27;;;8.30;;
2748;SDS011;1382;52.142;11.618;2023-11-21T03:47:08;12.00;;;6.53;;
2748;SDS011;1382;52.142;11.618;2023-11-21T03:49:37;14.33;;;7.10;;
2748;SDS011;1382;52.142;11.618;2023-11-21T03:52:04;14.13;;;7.50;;
2748;SDS011;1382;52.142;11.618;2023-11-21T03:54:32;12.17;;;6.90;;
2748;SDS011;1382;52.142;11.618;2023-11-21T03:56:58;13.47;;;6.43;;
2748;SDS011;1382;52.142;11.618;2023-11-21T03:59:25;19.93;;;6.97;;
2748;SDS011;1382;52.142;11.618;2023-11-21T04:01:53;18.13;;;7.27;;
2748;SDS011;1382;52.142;11.618;2023-11-21T04:04:21;13.60;;;7.37;;
2748;SDS011;1382;52.142;11.618;2023-11-21T04:06:50;17.33;;;7.10;;
2748;SDS011;1382;52.142;11.618;2023-11-21T04:09:16;17.40;;;8.93;;
2748;SDS011;1382;52.142;11.618;2023-11-21T04:11:43;14.20;;;6.90;;
2748;SDS011;1382;52.142;11.618;2023-11-21T04:14:10;11.80;;;4.97;;
2748;SDS011;1382;52.142;11.618;2023-11-21T04:16:37;14.43;;;4.33;;
2748;SDS011;1382;52.142;11.618;2023-11-21T04:19:04;3.90;;;2.90;;
2748;SDS011;1382;52.142;11.618;2023-11-21T04:21:31;2.30;;;1.73;;
2748;SDS011;1382;52.142;11.618;2023-11-21T04:23:59;3.93;;;2.27;;
2748;SDS011;1382;52.142;11.618;2023-11-21T04:26:26;2.90;;;2.17;;
2748;SDS011;1382;52.142;11.618;2023-11-21T04:28:52;3.93;;;2.53;;
2748;SDS011;1382;52.142;11.618;2023-11-21T04:31:19;3.10;;;1.97;;
2748;SDS011;1382;52.142;11.618;2023-11-21T04:33:46;3.07;;;2.10;;
2748;SDS011;1382;52.142;11.618;2023-11-21T04:36:13;2.70;;;1.97;;
2748;SDS011;1382;52.142;11.618;2023-11-21T04:38:40;4.30;;;2.60;;
2748;SDS011;1382;52.142;11.618;2023-11-21T04:41:10;4.80;;;3.10;;
2748;SDS011;1382;52.142;11.618;2023-11-21T04:43:37;2.50;;;2.10;;
2748;SDS011;1382;52.142;11.618;2023-11-21T04:46:04;5.20;;;2.57;;
2748;SDS011;1382;52.142;11.618;2023-11-21T04:48:31;2.30;;;1.93;;
2748;SDS011;1382;52.142;11.618;2023-11-21T04:50:58;2.27;;;2.07;;
2748;SDS011;1382;52.142;11.618;2023-11-21T04:53:25;3.07;;;2.60;;
2748;SDS011;1382;52.142;11.618;2023-11-21T04:55:52;5.43;;;3.67;;
2748;SDS011;1382;52.142;11.618;2023-11-21T04:58:20;3.70;;;2.30;;
2748;SDS011;1382;52.142;11.618;2023-11-21T05:00:47;3.63;;;2.40;;
2748;SDS011;1382;52.142;11.618;2023-11-21T05:03:14;3.57;;;2.63;;
2748;SDS011;1382;52.142;11.618;2023-11-21T05:05:42;3.17;;;2.87;;
2748;SDS011;1382;52.142;11.618;2023-11-21T05:08:13;2.80;;;2.47;;
2748;SDS011;1382;52.142;11.618;2023-11-21T05:10:40;3.77;;;2.90;;
2748;SDS011;1382;52.142;11.618;2023-11-21T05:13:07;5.40;;;2.73;;
2748;SDS011;1382;52.142;11.618;2023-11-21T05:15:36;4.33;;;2.90;;
2748;SDS011;1382;52.142;11.618;2023-11-21T05:18:03;6.43;;;4.30;;
2748;SDS011;1382;52.142;11.618;2023-11-21T05:20:30;8.27;;;4.63;;
2748;SDS011;1382;52.142;11.618;2023-11-21T05:22:57;5.47;;;4.10;;
2748;SDS011;1382;52.142;11.618;2023-11-21T05:25:24;7.80;;;5.10;;
2748;SDS011;1382;52.142;11.618;2023-11-21T05:27:51;5.90;;;4.07;;
2748;SDS011;1382;52.142;11.618;2023-11-21T05:30:18;6.20;;;3.97;;
2748;SDS011;1382;52.142;11.618;2023-11-21T05:32:46;5.83;;;3.60;;
2748;SDS011;1382;52.142;11.618;2023-11-21T05:35:13;5.80;;;3.90;;
2748;SDS011;1382;52.142;11.618;2023-11-21T05:37:40;4.80;;;3.77;;
2748;SDS011;1382;52.142;11.618;2023-11-21T05:40:08;6.00;;;4.10;;
2748;SDS011;1382;52.142;11.618;2023-11-21T05:42:35;5.73;;;3.63;;
2748;SDS011;1382;52.142;11.618;2023-11-21T05:45:03;5.30;;;2.47;;
2748;SDS011;1382;52.142;11.618;2023-11-21T05:47:30;4.67;;;3.60;;
2748;SDS011;1382;52.142;11.618;2023-11-21T05:49:58;3.27;;;2.97;;
2748;SDS011;1382;52.142;11.618;2023-11-21T05:52:25;3.07;;;2.53;;
2748;SDS011;1382;52.142;11.618;2023-11-21T05:54:52;4.93;;;3.27;;
2748;SDS011;1382;52.142;11.618;2023-11-21T05:57:19;6.07;;;3.20;;
2748;SDS011;1382;52.142;11.618;2023-11-21T05:59:46;5.47;;;2.90;;
2748;SDS011;1382;52.142;11.618;2023-11-21T06:02:13;10.43;;;3.90;;
2748;SDS011;1382;52.142;11.618;2023-11-21T06:04:40;5.10;;;3.37;;
2748;SDS011;1382;52.142;11.618;2023-11-21T06:07:08;5.37;;;3.53;;
2748;SDS011;1382;52.142;11.618;2023-11-21T06:09:35;4.60;;;4.20;;
2748;SDS011;1382;52.142;11.618;2023-11-21T06:12:03;5.90;;;3.80;;
2748;SDS011;1382;52.142;11.618;2023-11-21T06:14:30;6.30;;;4.90;;
2748;SDS011;1382;52.142;11.618;2023-11-21T06:16:57;5.37;;;3.57;;
2748;SDS011;1382;52.142;11.618;2023-11-21T06:19:24;9.00;;;5.00;;
2748;SDS011;1382;52.142;11.618;2023-11-21T06:21:51;9.83;;;5.67;;
2748;SDS011;1382;52.142;11.618;2023-11-21T06:24:19;8.97;;;4.17;;
2748;SDS011;1382;52.142;11.618;2023-11-21T06:26:46;5.27;;;3.80;;
2748;SDS011;1382;52.142;11.618;2023-11-21T06:29:13;9.83;;;5.80;;
2748;SDS011;1382;52.142;11.618;2023-11-21T06:31:40;8.07;;;6.50;;
2748;SDS011;1382;52.142;11.618;2023-11-21T06:34:07;9.57;;;4.17;;
2748;SDS011;1382;52.142;11.618;2023-11-21T06:36:34;10.80;;;5.10;;
2748;SDS011;1382;52.142;11.618;2023-11-21T06:39:01;11.57;;;7.00;;
2748;SDS011;1382;52.142;11.618;2023-11-21T06:41:30;9.70;;;6.30;;
2748;SDS011;1382;52.142;11.618;2023-11-21T06:43:57;10.90;;;6.50;;
2748;SDS011;1382;52.142;11.618;2023-11-21T06:46:24;12.23;;;7.63;;
2748;SDS011;1382;52.142;11.618;2023-11-21T06:48:51;8.10;;;5.47;;
2748;SDS011;1382;52.142;11.618;2023-11-21T06:51:18;11.67;;;7.00;;
2748;SDS011;1382;52.142;11.618;2023-11-21T06:53:45;13.80;;;8.60;;
2748;SDS011;1382;52.142;11.618;2023-11-21T06:56:15;10.43;;;6.97;;
2748;SDS011;1382;52.142;11.618;2023-11-21T06:58:44;12.60;;;7.10;;
2748;SDS011;1382;52.142;11.618;2023-11-21T07:01:12;12.93;;;8.30;;
2748;SDS011;1382;52.142;11.618;2023-11-21T07:03:39;14.90;;;8.47;;
2748;SDS011;1382;52.142;11.618;2023-11-21T07:06:07;11.20;;;7.40;;
2748;SDS011;1382;52.142;11.618;2023-11-21T07:08:34;9.90;;;7.13;;
2748;SDS011;1382;52.142;11.618;2023-11-21T07:11:01;14.93;;;9.63;;
2748;SDS011;1382;52.142;11.618;2023-11-21T07:13:28;12.00;;;7.97;;
2748;SDS011;1382;52.142;11.618;2023-11-21T07:15:57;10.03;;;6.67;;
2748;SDS011;1382;52.142;11.618;2023-11-21T07:18:24;14.43;;;8.93;;
2748;SDS011;1382;52.142;11.618;2023-11-21T07:20:51;10.27;;;7.60;;
2748;SDS011;1382;52.142;11.618;2023-11-21T07:23:18;14.40;;;8.50;;
2748;SDS011;1382;52.142;11.618;2023-11-21T07:25:45;17.57;;;9.30;;
2748;SDS011;1382;52.142;11.618;2023-11-21T07:28:11;12.17;;;7.20;;
2748;SDS011;1382;52.142;11.618;2023-11-21T07:30:38;12.70;;;8.30;;
2748;SDS011;1382;52.142;11.618;2023-11-21T07:33:06;17.57;;;10.90;;
2748;SDS011;1382;52.142;11.618;2023-11-21T07:35:36;11.40;;;8.27;;
2748;SDS011;1382;52.142;11.618;2023-11-21T07:38:02;16.60;;;9.70;;
2748;SDS011;1382;52.142;11.618;2023-11-21T07:40:29;13.60;;;8.00;;
2748;SDS011;1382;52.142;11.618;2023-11-21T07:42:57;12.87;;;10.13;;
2748;SDS011;1382;52.142;11.618;2023-11-21T07:45:26;9.60;;;6.53;;
2748;SDS011;1382;52.142;11.618;2023-11-21T07:47:56;11.60;;;7.43;;
2748;SDS011;1382;52.142;11.618;2023-11-21T07:50:25;13.20;;;8.73;;
2748;SDS011;1382;52.142;11.618;2023-11-21T07:52:51;12.40;;;7.47;;
2748;SDS011;1382;52.142;11.618;2023-11-21T07:55:19;12.20;;;8.83;;
2748;SDS011;1382;52.142;11.618;2023-11-21T07:57:45;12.43;;;8.20;;
2748;SDS011;1382;52.142;11.618;2023-11-21T08:00:12;9.47;;;7.23;;
2748;SDS011;1382;52.142;11.618;2023-11-21T08:02:40;11.10;;;6.63;;
2748;SDS011;1382;52.142;11.618;2023-11-21T08:05:07;8.77;;;6.67;;
2748;SDS011;1382;52.142;11.618;2023-11-21T08:07:42;17.53;;;8.30;;
2748;SDS011;1382;52.142;11.618;2023-11-21T08:10:09;10.83;;;6.80;;
2748;SDS011;1382;52.142;11.618;2023-11-21T08:12:36;9.20;;;6.93;;
2748;SDS011;1382;52.142;11.618;2023-11-21T08:15:03;10.50;;;8.10;;
2748;SDS011;1382;52.142;11.618;2023-11-21T08:17:31;11.50;;;8.40;;
2748;SDS011;1382;52.142;11.618;2023-11-21T08:19:59;11.77;;;6.80;;
2748;SDS011;1382;52.142;11.618;2023-11-21T08:22:26;8.17;;;5.33;;
2748;SDS011;1382;52.142;11.618;2023-11-21T08:24:54;8.37;;;6.50;;
2748;SDS011;1382;52.142;11.618;2023-11-21T08:27:21;12.13;;;8.20;;
2748;SDS011;1382;52.142;11.618;2023-11-21T08:29:48;11.27;;;8.20;;
2748;SDS011;1382;52.142;11.618;2023-11-21T08:32:15;14.50;;;7.50;;
2748;SDS011;1382;52.142;11.618;2023-11-21T08:34:42;12.93;;;6.57;;
2748;SDS011;1382;52.142;11.618;2023-11-21T08:37:09;8.57;;;5.43;;
2748;SDS011;1382;52.142;11.618;2023-11-21T08:39:36;9.37;;;7.33;;
2748;SDS011;1382;52.142;11.618;2023-11-21T08:42:05;9.43;;;6.80;;
2748;SDS011;1382;52.142;11.618;2023-11-21T08:44:32;8.13;;;4.90;;
2748;SDS011;1382;52.142;11.618;2023-11-21T08:46:59;8.33;;;5.47;;
2748;SDS011;1382;52.142;11.618;2023-11-21T08:49:26;7.40;;;2.53;;
2748;SDS011;1382;52.142;11.618;2023-11-21T08:51:53;11.37;;;7.97;;
2748;SDS011;1382;52.142;11.618;2023-11-21T08:54:20;8.73;;;6.60;;
2748;SDS011;1382;52.142;11.618;2023-11-21T08:56:46;9.20;;;6.77;;
2748;SDS011;1382;52.142;11.618;2023-11-21T08:59:15;6.77;;;5.90;;
2748;SDS011;1382;52.142;11.618;2023-11-21T09:01:42;8.97;;;6.27;;
2748;SDS011;1382;52.142;11.618;2023-11-21T09:04:09;8.17;;;4.60;;
2748;SDS011;1382;52.142;11.618;2023-11-21T09:06:36;7.17;;;5.90;;
2748;SDS011;1382;52.142;11.618;2023-11-21T09:09:03;9.07;;;5.73;;
2748;SDS011;1382;52.142;11.618;2023-11-21T09:11:30;9.17;;;7.27;;
2748;SDS011;1382;52.142;11.618;2023-11-21T09:13:57;6.37;;;4.30;;
2748;SDS011;1382;52.142;11.618;2023-11-21T09:16:25;10.77;;;8.10;;
2748;SDS011;1382;52.142;11.618;2023-11-21T09:18:52;8.43;;;5.97;;
2748;SDS011;1382;52.142;11.618;2023-11-21T09:21:20;3.30;;;2.67;;
2748;SDS011;1382;52.142;11.618;2023-11-21T09:23:47;6.80;;;5.50;;
2748;SDS011;1382;52.142;11.618;2023-11-21T09:26:14;6.80;;;6.00;;
2748;SDS011;1382;52.142;11.618;2023-11-21T09:28:41;5.37;;;3.80;;
2748;SDS011;1382;52.142;11.618;2023-11-21T09:31:10;7.83;;;5.33;;
2748;SDS011;1382;52.142;11.618;2023-11-21T09:33:38;5.40;;;3.87;;
2748;SDS011;1382;52.142;11.618;2023-11-21T09:36:05;8.07;;;5.90;;
2748;SDS011;1382;52.142;11.618;2023-11-21T09:38:37;7.30;;;5.20;;
2748;SDS011;1382;52.142;11.618;2023-11-21T09:41:04;8.23;;;6.20;;
2748;SDS011;1382;52.142;11.618;2023-11-21T09:43:32;10.10;;;7.10;;
2748;SDS011;1382;52.142;11.618;2023-11-21T09:46:00;12.53;;;6.70;;
2748;SDS011;1382;52.142;11.618;2023-11-21T09:48:29;9.50;;;7.03;;
2748;SDS011;1382;52.142;11.618;2023-11-21T09:50:59;7.60;;;6.10;;
2748;SDS011;1382;52.142;11.618;2023-11-21T09:53:27;7.50;;;5.10;;
2748;SDS011;1382;52.142;11.618;2023-11-21T09:55:58;8.70;;;6.27;;
2748;SDS011;1382;52.142;11.618;2023-11-21T09:58:25;7.27;;;5.73;;
2748;SDS011;1382;52.142;11.618;2023-11-21T10:00:54;8.57;;;5.27;;
2748;SDS011;1382;52.142;11.618;2023-11-21T10:03:24;6.70;;;4.23;;
2748;SDS011;1382;52.142;11.618;2023-11-21T10:05:51;8.07;;;5.03;;
2748;SDS011;1382;52.142;11.618;2023-11-21T10:08:24;7.03;;;5.10;;
2748;SDS011;1382;52.142;11.618;2023-11-21T10:10:58;6.80;;;5.10;;
2748;SDS011;1382;52.142;11.618;2023-11-21T10:13:26;7.47;;;5.03;;
2748;SDS011;1382;52.142;11.618;2023-11-21T10:15:55;5.70;;;4.07;;
2748;SDS011;1382;52.142;11.618;2023-11-21T10:18:23;7.03;;;5.23;;
2748;SDS011;1382;52.142;11.618;2023-11-21T10:20:51;7.73;;;4.40;;
2748;SDS011;1382;52.142;11.618;2023-11-21T10:23:20;7.47;;;5.40;;
2748;SDS011;1382;52.142;11.618;2023-11-21T10:25:49;7.63;;;6.17;;
2748;SDS011;1382;52.142;11.618;2023-11-21T10:28:16;5.07;;;3.53;;
2748;SDS011;1382;52.142;11.618;2023-11-21T10:30:43;8.10;;;5.30;;
2748;SDS011;1382;52.142;11.618;2023-11-21T10:33:10;6.83;;;5.07;;
2748;SDS011;1382;52.142;11.618;2023-11-21T10:35:44;8.87;;;5.03;;
2748;SDS011;1382;52.142;11.618;2023-11-21T10:38:11;8.27;;;5.90;;
2748;SDS011;1382;52.142;11.618;2023-11-21T10:40:38;7.00;;;5.43;;
2748;SDS011;1382;52.142;11.618;2023-11-21T10:43:07;9.10;;;5.83;;
2748;SDS011;1382;52.142;11.618;2023-11-21T10:45:35;8.63;;;5.90;;
2748;SDS011;1382;52.142;11.618;2023-11-21T10:48:04;11.10;;;6.03;;
2748;SDS011;1382;52.142;11.618;2023-11-21T10:50:32;7.10;;;5.17;;
2748;SDS011;1382;52.142;11.618;2023-11-21T10:53:00;8.77;;;6.97;;
2748;SDS011;1382;52.142;11.618;2023-11-21T10:55:28;6.47;;;4.10;;
2748;SDS011;1382;52.142;11.618;2023-11-21T10:57:55;10.80;;;7.20;;
2748;SDS011;1382;52.142;11.618;2023-11-21T11:00:26;6.70;;;5.93;;
2748;SDS011;1382;52.142;11.618;2023-11-21T11:02:54;6.13;;;4.73;;
2748;SDS011;1382;52.142;11.618;2023-11-21T11:05:22;9.10;;;6.30;;
2748;SDS011;1382;52.142;11.618;2023-11-21T11:07:56;6.83;;;5.50;;
2748;SDS011;1382;52.142;11.618;2023-11-21T11:10:25;4.60;;;3.63;;
2748;SDS011;1382;52.142;11.618;2023-11-21T11:12:53;7.43;;;5.77;;
2748;SDS011;1382;52.142;11.618;2023-11-21T11:15:20;12.73;;;7.57;;
2748;SDS011;1382;52.142;11.618;2023-11-21T11:17:49;5.37;;;2.47;;
2748;SDS011;1382;52.142;11.618;2023-11-21T11:20:16;8.10;;;5.27;;
2748;SDS011;1382;52.142;11.618;2023-11-21T11:22:46;6.13;;;5.50;;
2748;SDS011;1382;52.142;11.618;2023-11-21T11:25:29;7.30;;;6.30;;
2748;SDS011;1382;52.142;11.618;2023-11-21T11:28:12;8.17;;;5.40;;
2748;SDS011;1382;52.142;11.618;2023-11-21T11:30:47;9.67;;;5.53;;
2748;SDS011;1382;52.142;11.618;2023-11-21T11:33:27;7.93;;;5.77;;
2748;SDS011;1382;52.142;11.618;2023-11-21T11:36:00;9.80;;;7.37;;
2748;SDS011;1382;52.142;11.618;2023-11-21T11:38:32;9.20;;;7.10;;
2748;SDS011;1382;52.142;11.618;2023-11-21T11:41:01;9.97;;;6.70;;
2748;SDS011;1382;52.142;11.618;2023-11-21T11:43:28;6.80;;;5.03;;
2748;SDS011;1382;52.142;11.618;2023-11-21T11:45:56;8.40;;;6.20;;
2748;SDS011;1382;52.142;11.618;2023-11-21T11:48:23;8.27;;;5.53;;
2748;SDS011;1382;52.142;11.618;2023-11-21T11:51:01;7.73;;;5.20;;
2748;SDS011;1382;52.142;11.618;2023-11-21T11:53:32;7.33;;;5.70;;
2748;SDS011;1382;52.142;11.618;2023-11-21T11:58:47;8.30;;;5.43;;
2748;SDS011;1382;52.142;11.618;2023-11-21T12:01:16;8.07;;;5.90;;
2748;SDS011;1382;52.142;11.618;2023-11-21T12:03:44;16.27;;;6.13;;
2748;SDS011;1382;52.142;11.618;2023-11-21T12:06:35;9.97;;;5.03;;
2748;SDS011;1382;52.142;11.618;2023-11-21T12:09:03;3.83;;;3.40;;
2748;SDS011;1382;52.142;11.618;2023-11-21T12:11:30;10.17;;;5.90;;
2748;SDS011;1382;52.142;11.618;2023-11-21T12:13:57;7.77;;;5.93;;
2748;SDS011;1382;52.142;11.618;2023-11-21T12:16:25;6.40;;;5.50;;
2748;SDS011;1382;52.142;11.618;2023-11-21T12:18:52;6.50;;;4.87;;
2748;SDS011;1382;52.142;11.618;2023-11-21T12:21:19;7.77;;;5.63;;
2748;SDS011;1382;52.142;11.618;2023-11-21T12:23:47;6.93;;;5.47;;
2748;SDS011;1382;52.142;11.618;2023-11-21T12:26:14;8.03;;;5.47;;
2748;SDS011;1382;52.142;11.618;2023-11-21T12:28:41;8.40;;;5.03;;
2748;SDS011;1382;52.142;11.618;2023-11-21T12:31:08;12.37;;;5.60;;
2748;SDS011;1382;52.142;11.618;2023-11-21T12:33:47;8.13;;;5.80;;
2748;SDS011;1382;52.142;11.618;2023-11-21T12:36:14;6.00;;;4.83;;
2748;SDS011;1382;52.142;11.618;2023-11-21T12:38:42;9.90;;;6.03;;
2748;SDS011;1382;52.142;11.618;2023-11-21T12:41:10;7.90;;;5.70;;
2748;SDS011;1382;52.142;11.618;2023-11-21T12:43:37;8.43;;;4.80;;
2748;SDS011;1382;52.142;11.618;2023-11-21T12:46:04;12.40;;;6.80;;
2748;SDS011;1382;52.142;11.618;2023-11-21T12:48:32;11.17;;;3.97;;
2748;SDS011;1382;52.142;11.618;2023-11-21T12:50:59;8.03;;;4.67;;
2748;SDS011;1382;52.142;11.618;2023-11-21T12:53:26;6.07;;;5.07;;
2748;SDS011;1382;52.142;11.618;2023-11-21T12:55:55;4.53;;;3.30;;
2748;SDS011;1382;52.142;11.618;2023-11-21T12:58:23;5.97;;;4.73;;
2748;SDS011;1382;52.142;11.618;2023-11-21T13:00:51;2.30;;;2.10;;
2748;SDS011;1382;52.142;11.618;2023-11-21T13:03:17;6.07;;;3.80;;
2748;SDS011;1382;52.142;11.618;2023-11-21T13:05:46;4.63;;;4.20;;
2748;SDS011;1382;52.142;11.618;2023-11-21T13:08:14;4.63;;;3.60;;
2748;SDS011;1382;52.142;11.618;2023-11-21T13:10:43;6.20;;;2.93;;
2748;SDS011;1382;52.142;11.618;2023-11-21T13:13:11;5.20;;;3.70;;
2748;SDS011;1382;52.142;11.618;2023-11-21T13:15:40;4.67;;;3.00;;
2748;SDS011;1382;52.142;11.618;2023-11-21T13:18:14;7.50;;;4.13;;
2748;SDS011;1382;52.142;11.618;2023-11-21T13:20:41;3.87;;;2.40;;
2748;SDS011;1382;52.142;11.618;2023-11-21T13:23:09;8.40;;;4.70;;
2748;SDS011;1382;52.142;11.618;2023-11-21T13:25:37;4.47;;;3.60;;
2748;SDS011;1382;52.142;11.618;2023-11-21T13:28:04;5.90;;;3.93;;
2748;SDS011;1382;52.142;11.618;2023-11-21T13:30:31;12.20;;;3.97;;
2748;SDS011;1382;52.142;11.618;2023-11-21T13:32:59;6.20;;;4.17;;
2748;SDS011;1382;52.142;11.618;2023-11-21T13:35:27;1.40;;;1.30;;
2748;SDS011;1382;52.142;11.618;2023-11-21T13:37:54;4.67;;;3.67;;
2748;SDS011;1382;52.142;11.618;2023-11-21T13:40:21;4.23;;;3.43;;
2748;SDS011;1382;52.142;11.618;2023-11-21T13:42:49;4.17;;;3.57;;
2748;SDS011;1382;52.142;11.618;2023-11-21T13:45:16;3.47;;;2.97;;
2748;SDS011;1382;52.142;11.618;2023-11-21T13:47:43;5.40;;;3.30;;
2748;SDS011;1382;52.142;11.618;2023-11-21T13:50:11;7.40;;;2.43;;
2748;SDS011;1382;52.142;11.618;2023-11-21T13:52:38;3.73;;;2.63;;
2748;SDS011;1382;52.142;11.618;2023-11-21T13:55:05;4.53;;;2.90;;
2748;SDS011;1382;52.142;11.618;2023-11-21T13:57:33;3.10;;;2.40;;
2748;SDS011;1382;52.142;11.618;2023-11-21T14:00:00;3.07;;;2.77;;
2748;SDS011;1382;52.142;11.618;2023-11-21T14:02:26;4.30;;;3.33;;
2748;SDS011;1382;52.142;11.618;2023-11-21T14:04:53;4.43;;;2.83;;
2748;SDS011;1382;52.142;11.618;2023-11-21T14:07:23;3.50;;;3.13;;
2748;SDS011;1382;52.142;11.618;2023-11-21T14:09:51;3.03;;;2.63;;
2748;SDS011;1382;52.142;11.618;2023-11-21T14:12:18;4.17;;;3.50;;
2748;SDS011;1382;52.142;11.618;2023-11-21T14:14:44;4.33;;;3.40;;
2748;SDS011;1382;52.142;11.618;2023-11-21T14:17:11;7.10;;;5.50;;
2748;SDS011;1382;52.142;11.618;2023-11-21T14:19:38;6.83;;;4.53;;
2748;SDS011;1382;52.142;11.618;2023-11-21T14:22:05;5.73;;;4.57;;
2748;SDS011;1382;52.142;11.618;2023-11-21T14:24:35;4.13;;;3.53;;
2748;SDS011;1382;52.142;11.618;2023-11-21T14:27:02;4.00;;;3.20;;
2748;SDS011;1382;52.142;11.618;2023-11-21T14:29:29;4.87;;;3.87;;
2748;SDS011;1382;52.142;11.618;2023-11-21T14:31:55;6.10;;;3.90;;
2748;SDS011;1382;52.142;11.618;2023-11-21T14:34:22;5.60;;;3.10;;
2748;SDS011;1382;52.142;11.618;2023-11-21T14:36:50;8.53;;;3.80;;
2748;SDS011;1382;52.142;11.618;2023-11-21T14:39:17;6.63;;;3.77;;
2748;SDS011;1382;52.142;11.618;2023-11-21T14:41:45;4.50;;;3.63;;
2748;SDS011;1382;52.142;11.618;2023-11-21T14:44:12;8.80;;;3.70;;
2748;SDS011;1382;52.142;11.618;2023-11-21T14:46:39;6.30;;;4.37;;
2748;SDS011;1382;52.142;11.618;2023-11-21T14:49:06;9.60;;;4.13;;
2748;SDS011;1382;52.142;11.618;2023-11-21T14:51:33;6.20;;;3.53;;
2748;SDS011;1382;52.142;11.618;2023-11-21T14:54:00;4.50;;;3.60;;
2748;SDS011;1382;52.142;11.618;2023-11-21T14:56:27;5.17;;;4.27;;
2748;SDS011;1382;52.142;11.618;2023-11-21T14:58:56;5.53;;;4.40;;
2748;SDS011;1382;52.142;11.618;2023-11-21T15:01:24;7.07;;;4.50;;